| time (UTC) | temp C | wind direction | speed KPH | gust KPH | rain 1hr cm | rain 24hr cm | rain mn cm | humidity % | barometer mb |
| 20260507010024 | 10 | 236 | 1.6 | 6.4 | 0.00 | 0.46 | 0.46 | 92 | 1007.0 |
| 20260507004525 | 10 | 266 | 1.6 | 4.8 | 0.05 | 0.46 | 0.46 | 92 | 1006.8 |
| 20260507003009 | 11 | 290 | 1.6 | 6.4 | 0.05 | 0.46 | 0.46 | 92 | 1006.6 |
| 20260507001517 | 11 | 299 | 3.2 | 8.0 | 0.05 | 0.46 | 0.46 | 91 | 1006.5 |
| 20260507000027 | 12 | 211 | 1.6 | 9.7 | 0.05 | 0.46 | 0.46 | 91 | 1006.1 |
| 20260506234523 | 13 | 307 | 3.2 | 6.4 | 0.00 | 0.41 | 0.41 | 93 | 1005.6 |
| 20260506233026 | 13 | 262 | 0.0 | 6.4 | 0.00 | 0.41 | 0.41 | 93 | 1005.2 |
| 20260506231513 | 13 | 120 | 1.6 | 8.0 | 0.00 | 0.41 | 0.41 | 93 | 1005.2 |
| 20260506230018 | 13 | 219 | 1.6 | 8.0 | 0.00 | 0.41 | 0.41 | 93 | 1005.2 |
| 20260506224525 | 13 | 210 | 0.0 | 3.2 | 0.00 | 0.41 | 0.41 | 93 | 1005.1 |
| 20260506223021 | 14 | 210 | 1.6 | 6.4 | 0.00 | 0.41 | 0.41 | 93 | 1005.2 |
| 20260506221527 | 14 | 285 | 1.6 | 6.4 | 0.00 | 0.41 | 0.41 | 93 | 1005.1 |
| 20260506220014 | 13 | 270 | 0.0 | 17.7 | 0.03 | 0.41 | 0.41 | 93 | 1005.2 |
| 20260506211525 | 13 | 268 | 1.6 | 8.0 | 0.03 | 0.41 | 0.41 | 94 | 1005.1 |
| 20260506210026 | 13 | 226 | 0.0 | 3.2 | 0.03 | 0.38 | 0.38 | 94 | 1005.2 |
| 20260506201528 | 13 | 145 | 1.6 | 6.4 | 0.13 | 0.38 | 0.38 | 94 | 1005.5 |
| 20260506200028 | 13 | 292 | 1.6 | 6.4 | 0.15 | 0.36 | 0.36 | 94 | 1005.6 |
| 20260506194527 | 13 | 230 | 0.0 | 4.8 | 0.13 | 0.30 | 0.30 | 94 | 1005.7 |
| 20260506193016 | 13 | 139 | 0.0 | 8.0 | 0.13 | 0.30 | 0.30 | 93 | 1006.0 |
| 20260506191531 | 14 | 137 | 1.6 | 4.8 | 0.10 | 0.25 | 0.25 | 93 | 1006.0 |
| 20260506190024 | 14 | 110 | 1.6 | 12.9 | 0.08 | 0.20 | 0.20 | 93 | 1006.1 |
| 20260506184527 | 14 | 148 | 1.6 | 8.0 | 0.05 | 0.18 | 0.18 | 93 | 1006.1 |
| 20260506183026 | 14 | 205 | 1.6 | 6.4 | 0.08 | 0.18 | 0.18 | 92 | 1006.2 |
| 20260506181524 | 14 | 130 | 1.6 | 8.0 | 0.08 | 0.15 | 0.15 | 92 | 1006.4 |
| 20260506180006 | 15 | 284 | 0.0 | 6.4 | 0.10 | 0.13 | 0.13 | 91 | 1006.6 |
| 20260506171533 | 15 | 137 | 0.0 | 4.8 | 0.08 | 0.08 | 0.08 | 89 | 1007.1 |
| 20260506170020 | 15 | 121 | 0.0 | 8.0 | 0.03 | 0.03 | 0.03 | 87 | 1007.6 |
| 20260506164504 | 15 | 152 | 0.0 | 3.2 | 0.00 | 0.00 | 0.00 | 85 | 1007.6 |
| 20260506163018 | 15 | 212 | 1.6 | 6.4 | 0.00 | 0.00 | 0.00 | 82 | 1007.6 |
| 20260506153005 | 16 | 139 | 0.0 | 8.0 | 0.00 | 0.00 | 0.00 | 77 | 1008.2 |
| 20260506144519 | 16 | 205 | 0.0 | 9.7 | 0.00 | 0.00 | 0.00 | 76 | 1008.4 |
| 20260506143022 | 16 | 122 | 1.6 | 16.1 | 0.00 | 0.00 | 0.00 | 76 | 1008.4 |
| 20260506141508 | 16 | 139 | 1.6 | 8.0 | 0.00 | 0.00 | 0.00 | 77 | 1008.5 |
| 20260506140010 | 17 | 301 | 1.6 | 8.0 | 0.00 | 0.00 | 0.00 | 75 | 1008.2 |
| 20260506134539 | 17 | 219 | 1.6 | 9.7 | 0.00 | 0.00 | 0.00 | 74 | 1008.0 |
| 20260506133018 | 16 | 271 | 0.0 | 6.4 | 0.00 | 0.00 | 0.00 | 78 | 1008.0 |
| 20260506131526 | 16 | 205 | 1.6 | 11.3 | 0.00 | 0.00 | 0.00 | 80 | 1008.0 |
| 20260506130008 | 15 | 275 | 3.2 | 11.3 | 0.00 | 0.00 | 0.00 | 81 | 1008.4 |
| 20260506124516 | 15 | 315 | 0.0 | 9.7 | 0.00 | 0.00 | 0.00 | 82 | 1008.5 |
| 20260506123018 | 14 | 129 | 1.6 | 6.4 | 0.00 | 0.00 | 0.00 | 84 | 1008.8 |
| 20260506121518 | 13 | 275 | 0.0 | 3.2 | 0.00 | 0.00 | 0.00 | 86 | 1008.8 |
| 20260506120024 | 13 | 228 | 1.6 | 4.8 | 0.00 | 0.00 | 0.00 | 86 | 1008.8 |
| 20260506114521 | 13 | 181 | 0.0 | 4.8 | 0.00 | 0.00 | 0.00 | 87 | 1008.7 |
| 20260506111518 | 12 | 300 | 1.6 | 3.2 | 0.00 | 0.00 | 0.00 | 88 | 1008.9 |
| 20260506110023 | 12 | 236 | 0.0 | 3.2 | 0.00 | 0.00 | 0.00 | 88 | 1008.7 |
| 20260506104523 | 11 | 124 | 0.0 | 1.6 | 0.00 | 0.00 | 0.00 | 90 | 1009.1 |
| 20260506103021 | 11 | 114 | 0.0 | 1.6 | 0.00 | 0.00 | 0.00 | 90 | 1008.8 |
| 20260506101516 | 11 | 160 | 0.0 | 3.2 | 0.00 | 0.00 | 0.00 | 90 | 1008.8 |
| 20260506100031 | 11 | 209 | 0.0 | 3.2 | 0.00 | 0.00 | 0.00 | 89 | 1008.5 |
| 20260506094524 | 11 | 130 | 0.0 | 1.6 | 0.00 | 0.00 | 0.00 | 88 | 1008.4 |
| 20260506093024 | 11 | 119 | 0.0 | 1.6 | 0.00 | 0.00 | 0.00 | 87 | 1008.4 |
| 20260506091514 | 11 | 136 | 0.0 | 3.2 | 0.00 | 0.00 | 0.00 | 87 | 1008.5 |
| 20260506090021 | 11 | 207 | 0.0 | 1.6 | 0.00 | 0.00 | 0.00 | 85 | 1008.6 |
| 20260506084524 | 11 | 141 | 0.0 | 6.4 | 0.00 | 0.00 | 0.00 | 84 | 1008.7 |
| 20260506083006 | 12 | 254 | 0.0 | 3.2 | 0.00 | 0.00 | 0.00 | 83 | 1008.6 |
| 20260506081517 | 12 | 195 | 0.0 | 3.2 | 0.00 | 0.00 | 0.00 | 82 | 1008.7 |
| 20260506073022 | 12 | 136 | 0.0 | 0.0 | 0.00 | 0.00 | 0.00 | 81 | 1008.7 |
| 20260506071513 | 12 | 222 | 0.0 | 1.6 | 0.00 | 0.00 | 0.00 | 79 | 1008.7 |
| 20260506061533 | 13 | 153 | 0.0 | 0.0 | 0.00 | 0.00 | 0.00 | 78 | 1008.6 |
| 20260506044512 | 15 | 207 | 0.0 | 3.2 | 0.00 | 0.00 | 0.00 | 70 | 1009.0 |
| 20260506043016 | 15 | 237 | 0.0 | 4.8 | 0.00 | 0.00 | 0.00 | 69 | 1009.1 |
| 20260506041518 | 15 | 242 | 0.0 | 3.2 | 0.00 | 0.00 | 0.00 | 69 | 1009.1 |
| 20260506040027 | 15 | 200 | 0.0 | 4.8 | 0.00 | 0.00 | 0.00 | 68 | 1009.2 |
| 20260506034526 | 16 | 139 | 0.0 | 6.4 | 0.00 | 0.00 | 0.00 | 67 | 1009.0 |
| 20260506033015 | 16 | 283 | 0.0 | 4.8 | 0.00 | 0.00 | 0.00 | 66 | 1009.2 |
| 20260506031526 | 16 | 131 | 1.6 | 4.8 | 0.00 | 0.00 | 0.00 | 64 | 1009.1 |
| 20260506030022 | 17 | 175 | 0.0 | 4.8 | 0.00 | 0.00 | 0.00 | 62 | 1009.0 |
| 20260506024536 | 17 | 169 | 0.0 | 6.4 | 0.00 | 0.00 | 0.00 | 61 | 1009.0 |
| 20260506023028 | 17 | 143 | 0.0 | 3.2 | 0.00 | 0.00 | 0.00 | 60 | 1009.2 |
| 20260506021514 | 17 | 94 | 1.6 | 4.8 | 0.00 | 0.00 | 0.00 | 60 | 1009.2 |
| 20260506020020 | 18 | 119 | 1.6 | 4.8 | 0.00 | 0.00 | 0.00 | 60 | 1009.1 |
| 20260506014523 | 18 | 129 | 0.0 | 4.8 | 0.00 | 0.00 | 0.00 | 60 | 1009.1 |
| 20260506013027 | 18 | 204 | 0.0 | 9.7 | 0.00 | 0.00 | 0.00 | 60 | 1009.0 |
| 20260506011555 | 18 | 215 | 0.0 | 6.4 | 0.00 | 0.00 | 0.00 | 59 | 1008.9 |